Latest Coastal Weather Observations for Milingimbi

IDD60701

Issued at 11:05 am CST Friday 25 July 2014 (issued every 10 minutes, with the page automatically refreshed every 10 minutes)

About coastal observations | Map of coastal stations | Coastal observations for NT | Marine services | Other Formats
Station Details ID: 014404 Name: MILINGIMBI AIRPORT Lat: -12.09 Lon: 134.89 Height: 15.0 m
Data from the previous 72 hours. | See also: Recent months at Milingimbi
Date/Time
CST
Temp

°C
Wind Pressure Rain
since 9am
mm
Weather Cloud Vis
km
Sea
Height
m
Swell
Dir
 
Speed
knots
Gust
knots
hPa Trend Height
m
Period
s
Dir
25/11:00am 26.6 E 8 13 1016.9 - 0.0 - - - - - - -
25/10:30am 25.8 E 7 11 1017.1 - 0.0 - - - - - - -
25/10:00am 26.1 ESE 7 11 1017.2 - 0.0 - - - - - - -
25/09:30am 25.5 ESE 8 11 1017.3 - 0.0 - - - - - - -
25/09:00am 24.0 SE 6 9 1017.0 - 0.0 - - - - - - -
25/08:30am 22.8 SSE 6 8 1016.8 - 0.0 - - - - - - -
25/08:00am 21.4 SE 5 7 1016.4 - 0.0 - - - - - - -
25/07:30am 20.5 SSE 4 6 1016.2 - 0.0 - - - - - - -
25/07:00am 20.1 S 3 4 1015.9 - 0.0 - - - - - - -
25/06:30am 20.4 S 3 5 1015.4 - 0.0 - - - - - - -
25/06:00am 22.4 E 5 8 1015.0 - 0.0 - - - - - - -
25/05:30am 22.2 ESE 5 7 1014.8 - 0.0 - - - - - - -
25/05:00am 21.8 E 4 6 1014.7 - 0.0 - - - - - - -
25/04:30am 21.6 ESE 4 6 1014.5 - 0.0 - - - - - - -
25/04:00am 21.7 ESE 4 7 1014.5 - 0.0 - - - - - - -
25/03:30am 21.5 SSE 4 5 1014.7 - 0.0 - - - - - - -
25/03:00am 21.7 ESE 4 6 1014.6 - 0.0 - - - - - - -
25/02:30am 22.2 SE 5 7 1014.8 - 0.0 - - - - - - -
25/02:00am 22.6 ESE 7 9 1014.9 - 0.0 - - - - - - -
25/01:30am 22.8 ESE 7 10 1014.9 - 0.0 - - - - - - -
25/01:00am 23.0 ESE 8 11 1015.0 - 0.0 - - - - - - -
25/12:30am 23.4 SE 8 11 1015.3 - 0.0 - - - - - - -
25/12:00am 24.1 ESE 8 11 1015.4 - 0.0 - - - - - - -
 
Date/Time
CST
Temp

°C
Wind Pressure Rain
since 9am
mm
Weather Cloud Vis
km
Sea
Height
m
Swell
Dir
 
Speed
knots
Gust
knots
hPa Trend Height
m
Period
s
Dir
24/11:30pm 24.3 ESE 7 11 1015.3 - 0.0 - - - - - - -
24/11:00pm 24.5 E 6 10 1015.1 - 0.0 - - - - - - -
24/10:30pm 24.6 E 7 13 1015.1 - 0.0 - - - - - - -
24/10:00pm 24.5 ENE 7 11 1014.8 - 0.0 - - - - - - -
24/09:30pm 24.5 ENE 6 11 1014.7 - 0.0 - - - - - - -
24/09:00pm 24.4 ENE 6 11 1014.2 - 0.0 - - - - - - -
24/08:30pm 24.3 NE 6 10 1013.9 - 0.0 - - - - - - -
24/08:00pm 24.1 ENE 4 6 1013.6 - 0.0 - - - - - - -
24/07:30pm 24.1 NE 4 7 1013.3 - 0.0 - - - - - - -
24/07:00pm 24.1 NE 4 6 1013.0 - 0.0 - - - - - - -
24/06:30pm 24.4 NE 4 7 1012.7 - 0.0 - - - - - - -
24/06:00pm 25.0 NE 5 8 1012.3 - 0.0 - - - - - - -
24/05:30pm 25.6 NE 6 11 1012.2 - 0.0 - - - - - - -
24/05:00pm 26.4 NE 6 12 1012.2 - 0.0 - - - - - - -
24/04:30pm 26.8 NNE 6 10 1011.8 - 0.0 - - - - - - -
24/04:00pm 27.0 NNE 7 13 1011.7 - 0.0 - - - - - - -
24/03:30pm 27.4 N 6 11 1011.7 - 0.0 - - - - - - -
24/03:00pm 28.4 ENE 6 9 1011.8 - 0.0 - - - - - - -
24/02:30pm 28.7 ENE 7 10 1012.2 - 0.0 - - - - - - -
24/02:00pm 27.7 NE 7 11 1012.7 - 0.0 - - - - - - -
24/01:30pm 27.8 NE 7 11 1013.1 - 0.0 - - - - - - -
24/01:00pm 27.1 ENE 6 9 1013.6 - 0.0 - - - - - - -
24/12:30pm 27.0 ENE 5 9 1014.0 - 0.0 - - - - - - -
24/12:00pm 27.0 E 5 11 1014.3 - 0.0 - - - - - - -
24/11:30am 27.1 E 6 9 1014.8 - 0.0 - - - - - - -
24/11:00am 25.7 E 7 11 1015.1 - 0.0 - - - - - - -
24/10:30am 26.1 ESE 7 11 1015.3 - 0.0 - - - - - - -
24/10:00am 26.1 ESE 7 11 1015.5 - 0.0 - - - - - - -
24/09:30am 24.2 SE 6 9 1015.5 - 0.0 - - - - - - -
24/09:00am 23.2 SE 6 8 1015.1 - 0.0 - - - - - - -
24/08:30am 21.6 SSE 5 7 1015.1 - 0.0 - - - - - - -
24/08:00am 20.3 S 5 7 1014.7 - 0.0 - - - - - - -
24/07:30am 19.7 SE 3 4 1014.3 - 0.0 - - - - - - -
24/07:00am 19.5 SSE 4 5 1014.0 - 0.0 - - - - - - -
24/06:30am 19.9 SSE 4 5 1013.8 - 0.0 - - - - - - -
24/06:00am 20.6 SSE 5 7 1013.5 - 0.0 - - - - - - -
24/05:30am 21.5 ESE 6 9 1013.5 - 0.0 - - - - - - -
24/05:00am 21.5 E 5 8 1013.5 - 0.0 - - - - - - -
24/04:30am 21.6 E 5 8 1013.4 - 0.0 - - - - - - -
24/04:00am 21.8 E 5 7 1013.4 - 0.0 - - - - - - -
24/03:30am 21.9 E 6 9 1013.5 - 0.0 - - - - - - -
24/03:00am 21.9 E 6 11 1013.4 - 0.0 - - - - - - -
24/02:30am 22.1 E 6 10 1013.7 - 0.0 - - - - - - -
24/02:00am 22.2 E 5 8 1013.9 - 0.0 - - - - - - -
24/01:30am 22.3 E 5 9 1014.1 - 0.0 - - - - - - -
24/01:00am 22.5 E 7 11 1014.2 - 0.0 - - - - - - -
24/12:30am 22.7 E 6 11 1014.4 - 0.0 - - - - - - -
24/12:00am 22.8 E 7 11 1014.2 - 0.0 - - - - - - -
 
Date/Time
CST
Temp

°C
Wind Pressure Rain
since 9am
mm
Weather Cloud Vis
km
Sea
Height
m
Swell
Dir
 
Speed
knots
Gust
knots
hPa Trend Height
m
Period
s
Dir
23/11:30pm 23.0 ESE 7 11 1014.2 - 0.0 - - - - - - -
23/11:00pm 23.3 SE 9 12 1014.2 - 0.0 - - - - - - -
23/10:30pm 23.9 ESE 9 13 1014.1 - 0.0 - - - - - - -
23/10:00pm 23.4 E 3 5 1014.0 - 0.0 - - - - - - -
23/09:30pm 23.1 E 3 6 1013.9 - 0.0 - - - - - - -
23/09:00pm 23.1 E 2 4 1013.5 - 0.0 - - - - - - -
23/08:30pm 23.0 NE 3 4 1013.2 - 0.0 - - - - - - -
23/08:00pm 22.6 N 2 4 1012.8 - 0.0 - - - - - - -
23/07:30pm 22.6 CALM 0 0 1012.4 - 0.0 - - - - - - -
23/07:00pm 22.9 CALM 0 0 1011.9 - 0.0 - - - - - - -
23/06:30pm 23.9 CALM 0 0 1011.7 - 0.0 - - - - - - -
23/06:00pm 25.0 CALM 0 0 1011.3 - 0.0 - - - - - - -
23/05:30pm 26.1 ENE 3 5 1011.3 - 0.0 - - - - - - -
23/05:00pm 26.8 ENE 4 5 1011.2 - 0.0 - - - - - - -
23/04:30pm 27.5 ENE 5 6 1010.9 - 0.0 - - - - - - -
23/04:00pm 27.8 ENE 6 9 1010.9 - 0.0 - - - - - - -
23/03:30pm 28.0 ENE 5 9 1011.0 - 0.0 - - - - - - -
23/03:00pm 28.6 E 7 11 1011.1 - 0.0 - - - - - - -
23/02:30pm 29.4 E 8 13 1011.5 - 0.0 - - - - - - -
23/02:00pm 28.4 E 8 14 1011.9 - 0.0 - - - - - - -
23/01:30pm 28.2 E 9 13 1012.3 - 0.0 - - - - - - -
23/01:00pm 28.1 SE 9 14 1012.8 - 0.0 - - - - - - -
23/12:30pm 27.8 SE 11 18 1013.3 - 0.0 - - - - - - -
23/12:00pm 27.3 SE 11 16 1013.6 - 0.0 - - - - - - -
23/11:30am 26.7 SE 11 15 1014.2 - 0.0 - - - - - - -
23/11:00am 25.3 SE 11 15 1014.7 - 0.0 - - - - - - -
23/10:30am 24.8 SE 8 12 1015.0 - 0.0 - - - - - - -
23/10:00am 24.3 SE 10 12 1015.2 - 0.0 - - - - - - -
23/09:30am 23.9 ESE 10 14 1015.4 - 0.0 - - - - - - -
23/09:00am 22.9 SE 8 11 1015.4 - 0.0 - - - - - - -
23/08:30am 21.7 SSE 7 10 1015.5 - 0.0 - - - - - - -
23/08:00am 20.5 SSE 6 7 1015.2 - 0.0 - - - - - - -
23/07:30am 19.4 SSE 5 7 1015.1 - 0.0 - - - - - - -
23/07:00am 18.8 SSE 5 6 1014.6 - 0.0 - - - - - - -
23/06:30am 18.8 S 5 6 1014.5 - 0.0 - - - - - - -
23/06:00am 19.0 SSE 6 9 1014.2 - 0.0 - - - - - - -
23/05:30am 19.1 SSE 6 9 1014.1 - 0.0 - - - - - - -
23/05:00am 19.3 SSE 6 8 1014.1 - 0.0 - - - - - - -
23/04:30am 19.4 SSE 6 8 1014.0 - 0.0 - - - - - - -
23/04:00am 19.3 SSE 7 9 1014.0 - 0.0 - - - - - - -
23/03:30am 19.2 SSE 6 8 1014.1 - 0.0 - - - - - - -
23/03:00am 19.4 SE 7 9 1014.0 - 0.0 - - - - - - -
23/02:30am 19.6 SE 7 9 1014.2 - 0.0 - - - - - - -
23/02:00am 19.8 SE 6 8 1014.4 - 0.0 - - - - - - -
23/01:30am 20.0 SE 6 8 1014.7 - 0.0 - - - - - - -
23/01:00am 20.4 SE 6 9 1014.9 - 0.0 - - - - - - -
23/12:30am 20.7 SE 6 8 1015.1 - 0.0 - - - - - - -
23/12:00am 21.7 SE 6 7 1015.0 - 0.0 - - - - - - -
 
Date/Time
CST
Temp

°C
Wind Pressure Rain
since 9am
mm
Weather Cloud Vis
km
Sea
Height
m
Swell
Dir
 
Speed
knots
Gust
knots
hPa Trend Height
m
Period
s
Dir
22/11:30pm 22.6 ESE 7 9 1015.3 - 0.0 - - - - - - -
22/11:00pm 23.1 ESE 8 11 1015.3 - 0.0 - - - - - - -
22/10:30pm 23.6 ESE 8 13 1015.6 - 0.0 - - - - - - -
22/10:00pm 24.0 ESE 8 12 1015.2 - 0.0 - - - - - - -
22/09:30pm 24.4 E 8 12 1014.8 - 0.0 - - - - - - -
22/09:00pm 24.5 ESE 7 9 1014.4 - 0.0 - - - - - - -
22/08:30pm 24.9 ESE 8 15 1014.1 - 0.0 - - - - - - -
22/08:00pm 25.0 ESE 7 10 1013.8 - 0.0 - - - - - - -
22/07:30pm 24.8 E 5 7 1013.4 - 0.0 - - - - - - -
22/07:00pm 25.3 E 6 9 1013.0 - 0.0 - - - - - - -
22/06:30pm 25.4 ENE 5 8 1012.8 - 0.0 - - - - - - -
22/06:00pm 26.0 ENE 5 8 1012.5 - 0.0 - - - - - - -
22/05:30pm 27.0 ENE 6 11 1012.4 - 0.0 - - - - - - -
22/05:00pm 27.8 NE 5 11 1012.5 - 0.0 - - - - - - -
22/04:30pm 27.2 ENE 7 10 1012.2 - 0.0 - - - - - - -
22/04:00pm 28.2 NE 5 8 1012.2 - 0.0 - - - - - - -
22/03:30pm 29.8 E 7 11 1012.2 - 0.0 - - - - - - -
22/03:00pm 29.0 E 8 12 1012.5 - 0.0 - - - - - - -
22/02:30pm 28.9 ESE 9 14 1012.9 - 0.0 - - - - - - -
22/02:00pm 29.8 SE 9 14 1013.3 - 0.0 - - - - - - -
22/01:30pm 27.9 ESE 10 15 1013.9 - 0.0 - - - - - - -
22/01:00pm 27.4 ESE 11 16 1014.3 - 0.0 - - - - - - -
22/12:30pm 28.5 ESE 10 17 1015.0 - 0.0 - - - - - - -
22/12:00pm 26.2 ESE 10 14 1015.5 - 0.0 - - - - - - -
22/11:30am 26.3 ESE 9 14 1016.0 - 0.0 - - - - - - -

Other Formats:

Comma delimited format used in spreadsheet applications
http://www.bom.gov.au/fwo/IDD60701/IDD60701.94140.axf

JavaScript Object Notation format (JSON) in row-major order
http://www.bom.gov.au/fwo/IDD60701/IDD60701.94140.json